»·PEaware :: N6342X KPAE-KBLI

N6342X :: KPAE-KBLI

FLIGHT INFORMATION

Flight Status: Arrived
Operator: Privately registered:
United States
More flights under this callsign
Pilot: Yohannes T. (42741)
Aircraft: CESSNA 172 SKYHAWK
(C172)
More flights by this aircraft type
Origin: KPAE Paine Field/Snohomish Co.
United States
Destination: KBLI Bellingham Intl
United States
More flights between these airports :: More routes between these airports
Route: PAINE6 PAE V23 EGERT SECOG
File this flight plan on PilotEdge
Remarks:
Altitude:
(Current/Filed)
6,000ft
Speed:
(Current/Filed)
110kts
Departed: 17-Jun-23 03:25 PM
Arrived: 17-Jun-23 04:18 PM
Distance/Time
Traveled:
54nm/0:53
Distance/Time
To Go:
Arrived

Flight Plot

Page will automatically refresh every two minutes.

Flight plan parsing failed; only flown route is shown


Map Options




Map Legend


Flown Route
Filed Route
Departure Airport
Arrival Airport
Navaid (VOR, NDB)
Fix

Horizontal Profiles

Position Reports

Time Latitude Longitude Heading Altitude Ground
Speed
17-Jun-23 14:55 47.905484 -122.277256 142 598ft 0kts
17-Jun-23 14:56 47.905484 -122.277256 142 598ft 0kts
17-Jun-23 14:57 47.905484 -122.277256 142 598ft 0kts
17-Jun-23 14:58 47.905484 -122.277256 142 598ft 0kts
17-Jun-23 14:59 47.905484 -122.277256 142 598ft 0kts
17-Jun-23 15:00 47.905484 -122.277256 142 598ft 0kts
17-Jun-23 15:01 47.905484 -122.277256 142 598ft 0kts
17-Jun-23 15:02 47.905484 -122.277256 142 598ft 0kts
17-Jun-23 15:03 47.905484 -122.277256 142 598ft 0kts
17-Jun-23 15:04 47.905484 -122.277256 142 598ft 0kts
17-Jun-23 15:05 47.905484 -122.277256 142 598ft 0kts
17-Jun-23 15:06 47.905484 -122.277256 142 598ft 0kts
17-Jun-23 15:07 47.905484 -122.277256 142 598ft 0kts
17-Jun-23 15:08 47.905484 -122.277256 142 598ft 0kts
17-Jun-23 15:09 47.905484 -122.277256 142 598ft 0kts
17-Jun-23 15:10 47.905484 -122.277256 142 598ft 0kts
17-Jun-23 15:11 47.905484 -122.277256 142 598ft 0kts
17-Jun-23 15:12 47.905484 -122.277256 142 598ft 0kts
17-Jun-23 15:13 47.905484 -122.277256 142 598ft 0kts
17-Jun-23 15:14 47.905453 -122.277181 101 598ft 1kts
17-Jun-23 15:15 47.905595 -122.277787 312 596ft 0kts
17-Jun-23 15:16 47.909064 -122.283080 312 578ft 10kts
17-Jun-23 15:17 47.913658 -122.283502 359 573ft 21kts
17-Jun-23 15:18 47.919870 -122.283951 358 568ft 19kts
17-Jun-23 15:19 47.920149 -122.283973 351 568ft 0kts
17-Jun-23 15:20 47.920149 -122.283973 351 568ft 0kts
17-Jun-23 15:21 47.920149 -122.283973 351 568ft 0kts
17-Jun-23 15:22 47.920854 -122.284080 354 567ft 16kts
17-Jun-23 15:23 47.921289 -122.284243 330 571ft 0kts
17-Jun-23 15:24 47.918029 -122.285778 179 569ft 67kts
17-Jun-23 15:25 47.891932 -122.285862 177 1339ft 102kts
17-Jun-23 15:26 47.863085 -122.282610 156 2207ft 102kts
17-Jun-23 15:27 47.867005 -122.253620 357 2946ft 105kts
17-Jun-23 15:28 47.895065 -122.263440 343 3743ft 99kts
17-Jun-23 15:29 47.921569 -122.275388 341 4507ft 99kts
17-Jun-23 15:30 47.950234 -122.283679 351 4987ft 113kts
17-Jun-23 15:31 47.981913 -122.291925 345 5248ft 111kts
17-Jun-23 15:32 48.011295 -122.303423 347 5759ft 107kts
17-Jun-23 15:33 48.041900 -122.312167 349 6020ft 114kts
17-Jun-23 15:34 48.073351 -122.321720 345 6018ft 120kts
17-Jun-23 15:35 48.106076 -122.331722 343 5947ft 116kts
17-Jun-23 15:36 48.138007 -122.340675 348 5885ft 113kts
17-Jun-23 15:37 48.170293 -122.349160 346 5934ft 117kts
17-Jun-23 15:38 48.202184 -122.360157 343 5923ft 118kts
17-Jun-23 15:39 48.234871 -122.368424 355 5938ft 120kts
17-Jun-23 15:40 48.267469 -122.374818 342 5985ft 119kts
17-Jun-23 15:41 48.300172 -122.383971 351 5975ft 122kts
17-Jun-23 15:42 48.332743 -122.394298 342 6011ft 120kts
17-Jun-23 15:43 48.364667 -122.407726 341 6217ft 117kts
17-Jun-23 15:44 48.397851 -122.415992 351 6173ft 121kts
17-Jun-23 15:45 48.430959 -122.424235 340 6174ft 119kts
17-Jun-23 15:46 48.463952 -122.434358 341 6058ft 120kts
17-Jun-23 15:47 48.495347 -122.446504 344 5825ft 117kts
17-Jun-23 15:48 48.527052 -122.453088 342 6009ft 115kts
17-Jun-23 15:49 48.558515 -122.463236 341 6116ft 117kts
17-Jun-23 15:50 48.590947 -122.472155 345 6083ft 118kts
17-Jun-23 15:51 48.622666 -122.481085 345 5972ft 118kts
17-Jun-23 15:52 48.654452 -122.491564 342 6087ft 117kts
17-Jun-23 15:53 48.687351 -122.500822 340 6052ft 121kts
17-Jun-23 15:54 48.720703 -122.511159 344 6018ft 123kts
17-Jun-23 15:55 48.754956 -122.513096 3 5881ft 128kts
17-Jun-23 15:56 48.788716 -122.516067 348 5911ft 120kts
17-Jun-23 15:57 48.821921 -122.518936 350 5926ft 119kts
17-Jun-23 15:58 48.855219 -122.521455 355 5974ft 121kts
17-Jun-23 15:59 48.887915 -122.518732 357 5738ft 123kts
17-Jun-23 16:00 48.920340 -122.522810 344 5425ft 120kts
17-Jun-23 16:01 48.951173 -122.527651 351 5393ft 113kts
17-Jun-23 16:02 48.981811 -122.534885 339 5228ft 111kts
17-Jun-23 16:03 49.010490 -122.549280 310 4630ft 104kts
17-Jun-23 16:04 49.035910 -122.556993 68 3829ft 118kts
17-Jun-23 16:05 49.020118 -122.538673 185 3388ft 85kts
17-Jun-23 16:06 48.996988 -122.538364 185 2947ft 79kts
17-Jun-23 16:07 48.975370 -122.537749 178 2379ft 78kts
17-Jun-23 16:08 48.954354 -122.537229 182 2181ft 76kts
17-Jun-23 16:09 48.933835 -122.537134 185 2139ft 72kts
17-Jun-23 16:10 48.912712 -122.535775 182 2170ft 71kts
17-Jun-23 16:11 48.892770 -122.538230 181 1969ft 72kts
17-Jun-23 16:12 48.873414 -122.537068 176 1639ft 69kts
17-Jun-23 16:13 48.854944 -122.538489 176 1307ft 65kts
17-Jun-23 16:14 48.837904 -122.537692 182 1008ft 56kts
17-Jun-23 16:15 48.822553 -122.537484 184 722ft 51kts
17-Jun-23 16:16 48.807354 -122.538046 167 317ft 53kts
17-Jun-23 16:17 48.798240 -122.537388 183 169ft 10kts
17-Jun-23 16:18 48.796919 -122.536087 95 168ft 0kts

Navigation Log

Ident Type
Flight plan parsing failed, navigation log unavailable